Decoded Metar for LTFJ (SABIHA GOKCEN in TURKEY) (IATA:N/A) | Meteo·Mobile Aviation Weather
aviador You're here:

LTFJ Decoded Metar

SABIHA GOKCEN in TURKEY
Report Time2019-06-18 18:20:00
UTC Time2019-06-18 18:52:57
Flight Rules vfr VFR
Wind040° at 08 kt
W.Decomp.*RWY 06: 7.3 kt HW 3.3 kt LCW
Visibility9999 m
Phenomena:N/A
Clouds:Scattered 015 Hf
Broken 100 Hf
Expected CloudBase > 1,600 ft AGL from Temp-Dew spread
Ceiling10,000 ft
Temp24°C (ISA +10)
Dew Point20°C (78% RH)
QNH1012 hPa
Density Alt1,785 ft
Elevation322 ft
Report Wrong Elevation
Raw Report
LTFJ 181820Z 04008KT 9999 SCT015 BKN100 24/20 Q1012 NOSIG=

Extra information for LTFJ:More info

Metar Taf Metar & Taf Last 4 Metars F.Rules Stats Wind Profile Meteogram Temp Stats Airport Information Weather charts Add Link Nearby VenuesMetar ALERT Operation Metar Decoded Social comments